• Join FlightAware (Why Join?)
  • Login
  • US Flag 
02:02PM EDT


 

Airport Tracker/Info


-or-


 

Live Flight TrackerFlight Track Log ✈ N269ML ✈ 22-Jan-2014 ✈ KCOM - KGYI

Flight Track Log - Related Links

Times and Time Zones

All times are in EST time to prevent confusion due to time zone crossing. See the N269ML flight status page for this flight to view local times or setup timezone preferences in your user account.

Time Position Orientation Groundspeed Altitude Reporting Facility
EST Latitude Longitude Course Direction KTS MPH feet Rate Location/Type
07:00PM 31.9108 -99.2589 53° Northeast 175 201 7,400  Level Fort Worth Center
07:01PM 31.9403 -99.2056 57° Northeast 184 212 9,300 1,800 Climbing Fort Worth Center
07:02PM 31.9719 -99.1464 58° Northeast 203 234 11,200 1,740 Climbing Fort Worth Center
07:03PM 32.0072 -99.0903 53° Northeast 212 244 12,900 1,740 Climbing Fort Worth Center
07:04PM 32.0898 -99.0525 52° Northeast  Level Estimated
07:04PM 32.0394 -99.0336 56° Northeast 210 242 14,800  Level Fort Worth Center
07:05PM 32.0794 -98.9639 56° Northeast 214 246 16,800 1,680 Climbing Fort Worth Center
07:06PM 32.1100 -98.9050 58° Northeast 213 245 18,400 1,020 Climbing Fort Worth Center
07:07PM 32.1433 -98.8411 58° Northeast 227 261 19,000 240 Climbing Fort Worth Center
07:08PM 32.1833 -98.7628 59° Northeast 271 312 19,000  Level Fort Worth Center
07:10PM 32.2344 -98.6856 52° Northeast 293 337 19,000  Level Fort Worth Center
07:11PM 32.3028 -98.6039 45° Northeast 295 339 19,000  Level Fort Worth Center
07:12PM 32.3558 -98.5325 49° Northeast 290 334 19,000  Level Fort Worth Center
07:13PM 32.4103 -98.4633 47° Northeast 287 330 19,000  Level Fort Worth Center
07:14PM 32.4669 -98.3878 48° Northeast 287 330 19,000  Level Fort Worth Center
07:15PM 32.5253 -98.3128 47° Northeast 288 331 19,000  Level Fort Worth Center
07:16PM 32.5781 -98.2414 49° Northeast 287 330 19,000  Level Fort Worth Center
07:17PM 32.6336 -98.1639 50° Northeast 287 330 19,000  Level Fort Worth Center
07:18PM 32.6872 -98.0942 48° Northeast 284 327 19,000  Level Fort Worth Center
07:19PM 32.7389 -98.0217 50° Northeast 286 329 19,000  Level Fort Worth Center
07:20PM 32.7953 -97.9456 49° Northeast 285 328 19,000  Level Fort Worth Center
07:21PM 32.8475 -97.8750 49° Northeast 282 325 19,000  Level Fort Worth Center
07:22PM 32.9022 -97.7981 50° Northeast 283 326 19,000  Level Fort Worth Center
07:23PM 32.9550 -97.7281 48° Northeast 282 325 19,000  Level Fort Worth Center
07:24PM 33.0067 -97.6561 49° Northeast 283 326 19,000  Level Fort Worth Center
07:25PM 33.0636 -97.5778 49° Northeast 289 333 19,000 -180 Level Fort Worth Center
07:26PM 33.1208 -97.5094 45° Northeast 289 333 18,700 -1,140 Descending Fort Worth Center
07:27PM 33.1875 -97.4528 35° Northeast 294 338 16,700 -1,920 Descending Fort Worth Center
07:28PM 33.2414 -97.3692 52° Northeast 293 337 14,800 -1,740 Descending Fort Worth Center
07:29PM 33.2892 -97.2958 52° Northeast 280 322 13,200 -1,200 Descending Fort Worth Center
07:30PM 33.3500 -97.2000 53° Northeast 258 297 12,100 -660 Descending Dallas / Fort Worth TRACON
07:31PM 33.3783 -97.1519 55° Northeast 254 292 11,900 -120 Descending Fort Worth Center
07:32PM 33.4236 -97.0764 54° Northeast 257 296 11,900 -780 Level Fort Worth Center
07:33PM 33.4664 -97.0086 53° Northeast 256 295 10,300 -1,920 Descending Fort Worth Center
07:34PM 33.5086 -96.9397 54° Northeast 257 296 8,000 -2,280 Descending Fort Worth Center
07:35PM 33.5514 -96.8644 56° Northeast 254 292 5,700 -1,980 Descending Fort Worth Center
07:36PM 33.5892 -96.8097 50° Northeast 221 254 3,900 -1,560 Descending Fort Worth Center
07:37PM 33.6233 -96.7622 49° Northeast 180 207 2,500 -780 Descending Fort Worth Center
07:39PM 33.6478 -96.7194 56° Northeast 160 184 2,300 -360 Descending Fort Worth Center
07:40PM 33.6686 -96.6833 55° Northeast 127 146 1,800 -420 Descending Fort Worth Center
07:41PM 33.6864 -96.6636 43° Northeast 117 135 1,500 -300 Descending Fort Worth Center